sensor_id;sensor_type;location;lat;lon;timestamp;P1;durP1;ratioP1;P2;durP2;ratioP2
81864;SDS011;71313;43.514;1.500;2024-02-26T00:00:12;3.22;;;1.52;;
81864;SDS011;71313;43.514;1.500;2024-02-26T00:02:38;5.28;;;1.60;;
81864;SDS011;71313;43.514;1.500;2024-02-26T00:05:05;3.65;;;1.38;;
81864;SDS011;71313;43.514;1.500;2024-02-26T00:07:31;5.50;;;1.65;;
81864;SDS011;71313;43.514;1.500;2024-02-26T00:09:56;4.68;;;1.63;;
81864;SDS011;71313;43.514;1.500;2024-02-26T00:12:22;3.83;;;1.42;;
81864;SDS011;71313;43.514;1.500;2024-02-26T00:14:47;6.85;;;1.90;;
81864;SDS011;71313;43.514;1.500;2024-02-26T00:17:14;5.38;;;1.60;;
81864;SDS011;71313;43.514;1.500;2024-02-26T00:19:40;4.13;;;1.35;;
81864;SDS011;71313;43.514;1.500;2024-02-26T00:22:05;3.50;;;1.45;;
81864;SDS011;71313;43.514;1.500;2024-02-26T00:24:31;6.45;;;1.45;;
81864;SDS011;71313;43.514;1.500;2024-02-26T00:26:56;4.85;;;1.50;;
81864;SDS011;71313;43.514;1.500;2024-02-26T00:29:21;3.42;;;1.50;;
81864;SDS011;71313;43.514;1.500;2024-02-26T00:31:47;5.25;;;1.90;;
81864;SDS011;71313;43.514;1.500;2024-02-26T00:34:12;6.07;;;2.10;;
81864;SDS011;71313;43.514;1.500;2024-02-26T00:36:38;3.80;;;1.70;;
81864;SDS011;71313;43.514;1.500;2024-02-26T00:39:03;5.00;;;1.67;;
81864;SDS011;71313;43.514;1.500;2024-02-26T00:41:29;6.50;;;1.95;;
81864;SDS011;71313;43.514;1.500;2024-02-26T00:43:54;5.75;;;2.10;;
81864;SDS011;71313;43.514;1.500;2024-02-26T00:46:20;5.35;;;2.10;;
81864;SDS011;71313;43.514;1.500;2024-02-26T00:48:45;5.95;;;2.20;;
81864;SDS011;71313;43.514;1.500;2024-02-26T00:51:11;4.20;;;1.98;;
81864;SDS011;71313;43.514;1.500;2024-02-26T00:53:36;4.70;;;2.15;;
81864;SDS011;71313;43.514;1.500;2024-02-26T00:56:01;7.53;;;2.20;;
81864;SDS011;71313;43.514;1.500;2024-02-26T00:58:27;5.32;;;2.10;;
81864;SDS011;71313;43.514;1.500;2024-02-26T01:00:52;5.57;;;2.65;;
81864;SDS011;71313;43.514;1.500;2024-02-26T01:03:18;4.03;;;2.80;;
81864;SDS011;71313;43.514;1.500;2024-02-26T01:05:44;7.30;;;3.08;;
81864;SDS011;71313;43.514;1.500;2024-02-26T01:08:09;6.80;;;3.22;;
81864;SDS011;71313;43.514;1.500;2024-02-26T01:10:35;6.15;;;3.03;;
81864;SDS011;71313;43.514;1.500;2024-02-26T01:13:00;4.93;;;2.67;;
81864;SDS011;71313;43.514;1.500;2024-02-26T01:15:26;6.15;;;3.05;;
81864;SDS011;71313;43.514;1.500;2024-02-26T01:17:51;5.30;;;3.00;;
81864;SDS011;71313;43.514;1.500;2024-02-26T01:20:17;5.97;;;3.90;;
81864;SDS011;71313;43.514;1.500;2024-02-26T01:22:43;4.38;;;2.92;;
81864;SDS011;71313;43.514;1.500;2024-02-26T01:25:09;5.38;;;3.05;;
81864;SDS011;71313;43.514;1.500;2024-02-26T01:27:35;5.88;;;3.35;;
81864;SDS011;71313;43.514;1.500;2024-02-26T01:30:02;8.25;;;3.25;;
81864;SDS011;71313;43.514;1.500;2024-02-26T01:32:31;6.70;;;3.55;;
81864;SDS011;71313;43.514;1.500;2024-02-26T01:34:57;7.20;;;3.40;;
81864;SDS011;71313;43.514;1.500;2024-02-26T01:37:22;8.32;;;3.70;;
81864;SDS011;71313;43.514;1.500;2024-02-26T01:39:48;12.63;;;3.45;;
81864;SDS011;71313;43.514;1.500;2024-02-26T01:42:13;5.82;;;3.58;;
81864;SDS011;71313;43.514;1.500;2024-02-26T01:44:38;7.38;;;3.45;;
81864;SDS011;71313;43.514;1.500;2024-02-26T01:47:05;5.43;;;3.13;;
81864;SDS011;71313;43.514;1.500;2024-02-26T01:49:33;5.25;;;2.70;;
81864;SDS011;71313;43.514;1.500;2024-02-26T01:52:00;4.00;;;2.75;;
81864;SDS011;71313;43.514;1.500;2024-02-26T01:54:26;4.68;;;2.50;;
81864;SDS011;71313;43.514;1.500;2024-02-26T01:56:52;5.90;;;2.58;;
81864;SDS011;71313;43.514;1.500;2024-02-26T01:59:18;5.25;;;2.65;;
81864;SDS011;71313;43.514;1.500;2024-02-26T02:01:44;5.53;;;3.13;;
81864;SDS011;71313;43.514;1.500;2024-02-26T02:04:13;6.40;;;2.47;;
81864;SDS011;71313;43.514;1.500;2024-02-26T02:06:39;4.78;;;3.10;;
81864;SDS011;71313;43.514;1.500;2024-02-26T02:09:07;5.30;;;2.63;;
81864;SDS011;71313;43.514;1.500;2024-02-26T02:11:33;9.85;;;2.50;;
81864;SDS011;71313;43.514;1.500;2024-02-26T02:13:59;6.88;;;2.47;;
81864;SDS011;71313;43.514;1.500;2024-02-26T02:16:24;6.75;;;2.35;;
81864;SDS011;71313;43.514;1.500;2024-02-26T02:18:50;12.02;;;3.75;;
81864;SDS011;71313;43.514;1.500;2024-02-26T02:21:15;12.15;;;4.88;;
81864;SDS011;71313;43.514;1.500;2024-02-26T02:23:41;18.35;;;6.78;;
81864;SDS011;71313;43.514;1.500;2024-02-26T02:26:11;23.38;;;7.60;;
81864;SDS011;71313;43.514;1.500;2024-02-26T02:28:37;23.88;;;7.78;;
81864;SDS011;71313;43.514;1.500;2024-02-26T02:31:02;22.70;;;7.60;;
81864;SDS011;71313;43.514;1.500;2024-02-26T02:33:28;22.55;;;8.98;;
81864;SDS011;71313;43.514;1.500;2024-02-26T02:35:54;26.92;;;9.82;;
81864;SDS011;71313;43.514;1.500;2024-02-26T02:38:20;21.05;;;8.15;;
81864;SDS011;71313;43.514;1.500;2024-02-26T02:40:46;20.40;;;6.93;;
81864;SDS011;71313;43.514;1.500;2024-02-26T02:43:11;22.10;;;7.75;;
81864;SDS011;71313;43.514;1.500;2024-02-26T02:45:37;16.83;;;6.53;;
81864;SDS011;71313;43.514;1.500;2024-02-26T02:48:02;18.33;;;6.93;;
81864;SDS011;71313;43.514;1.500;2024-02-26T02:50:28;12.38;;;4.68;;
81864;SDS011;71313;43.514;1.500;2024-02-26T02:52:54;12.82;;;5.15;;
81864;SDS011;71313;43.514;1.500;2024-02-26T02:55:19;10.85;;;3.63;;
81864;SDS011;71313;43.514;1.500;2024-02-26T02:57:45;12.25;;;3.60;;
81864;SDS011;71313;43.514;1.500;2024-02-26T03:00:10;10.10;;;3.70;;
81864;SDS011;71313;43.514;1.500;2024-02-26T03:02:36;11.50;;;4.03;;
81864;SDS011;71313;43.514;1.500;2024-02-26T03:05:02;9.93;;;3.53;;
81864;SDS011;71313;43.514;1.500;2024-02-26T03:07:28;10.32;;;3.67;;
81864;SDS011;71313;43.514;1.500;2024-02-26T03:09:54;8.02;;;3.08;;
81864;SDS011;71313;43.514;1.500;2024-02-26T03:12:20;8.65;;;2.58;;
81864;SDS011;71313;43.514;1.500;2024-02-26T03:14:45;11.98;;;3.22;;
81864;SDS011;71313;43.514;1.500;2024-02-26T03:17:11;9.93;;;3.70;;
81864;SDS011;71313;43.514;1.500;2024-02-26T03:19:36;11.05;;;3.20;;
81864;SDS011;71313;43.514;1.500;2024-02-26T03:22:02;10.77;;;3.33;;
81864;SDS011;71313;43.514;1.500;2024-02-26T03:24:27;11.18;;;3.33;;
81864;SDS011;71313;43.514;1.500;2024-02-26T03:26:52;9.10;;;2.38;;
81864;SDS011;71313;43.514;1.500;2024-02-26T03:29:18;3.95;;;1.70;;
81864;SDS011;71313;43.514;1.500;2024-02-26T03:31:44;8.82;;;1.15;;
81864;SDS011;71313;43.514;1.500;2024-02-26T03:34:09;7.63;;;1.27;;
81864;SDS011;71313;43.514;1.500;2024-02-26T03:36:35;4.43;;;0.80;;
81864;SDS011;71313;43.514;1.500;2024-02-26T03:39:00;10.15;;;1.27;;
81864;SDS011;71313;43.514;1.500;2024-02-26T03:41:29;2.90;;;0.70;;
81864;SDS011;71313;43.514;1.500;2024-02-26T03:43:55;5.43;;;1.17;;
81864;SDS011;71313;43.514;1.500;2024-02-26T03:46:20;7.53;;;1.10;;
81864;SDS011;71313;43.514;1.500;2024-02-26T03:48:45;4.45;;;0.80;;
81864;SDS011;71313;43.514;1.500;2024-02-26T03:51:11;6.90;;;1.13;;
81864;SDS011;71313;43.514;1.500;2024-02-26T03:53:36;3.83;;;1.20;;
81864;SDS011;71313;43.514;1.500;2024-02-26T03:56:05;4.68;;;1.00;;
81864;SDS011;71313;43.514;1.500;2024-02-26T03:58:31;2.55;;;0.68;;
81864;SDS011;71313;43.514;1.500;2024-02-26T04:00:56;1.85;;;0.73;;
81864;SDS011;71313;43.514;1.500;2024-02-26T04:03:22;3.90;;;1.35;;
81864;SDS011;71313;43.514;1.500;2024-02-26T04:05:47;3.65;;;1.20;;
81864;SDS011;71313;43.514;1.500;2024-02-26T04:08:13;5.68;;;0.80;;
81864;SDS011;71313;43.514;1.500;2024-02-26T04:10:38;3.25;;;0.90;;
81864;SDS011;71313;43.514;1.500;2024-02-26T04:13:04;6.22;;;1.02;;
81864;SDS011;71313;43.514;1.500;2024-02-26T04:15:30;4.63;;;0.75;;
81864;SDS011;71313;43.514;1.500;2024-02-26T04:17:56;4.05;;;0.80;;
81864;SDS011;71313;43.514;1.500;2024-02-26T04:20:21;4.05;;;0.80;;
81864;SDS011;71313;43.514;1.500;2024-02-26T04:22:47;4.22;;;1.35;;
81864;SDS011;71313;43.514;1.500;2024-02-26T04:25:12;4.30;;;1.17;;
81864;SDS011;71313;43.514;1.500;2024-02-26T04:27:38;3.85;;;1.00;;
81864;SDS011;71313;43.514;1.500;2024-02-26T04:30:03;2.90;;;1.10;;
81864;SDS011;71313;43.514;1.500;2024-02-26T04:32:29;3.60;;;0.82;;
81864;SDS011;71313;43.514;1.500;2024-02-26T04:34:55;4.28;;;1.10;;
81864;SDS011;71313;43.514;1.500;2024-02-26T04:37:22;4.18;;;1.10;;
81864;SDS011;71313;43.514;1.500;2024-02-26T04:39:48;2.90;;;0.90;;
81864;SDS011;71313;43.514;1.500;2024-02-26T04:42:13;3.92;;;0.95;;
81864;SDS011;71313;43.514;1.500;2024-02-26T04:44:39;4.20;;;1.00;;
81864;SDS011;71313;43.514;1.500;2024-02-26T04:47:04;4.43;;;0.80;;
81864;SDS011;71313;43.514;1.500;2024-02-26T04:49:30;5.70;;;0.73;;
81864;SDS011;71313;43.514;1.500;2024-02-26T04:51:55;3.65;;;0.82;;
81864;SDS011;71313;43.514;1.500;2024-02-26T04:54:20;4.82;;;0.90;;
81864;SDS011;71313;43.514;1.500;2024-02-26T04:56:46;4.03;;;0.70;;
81864;SDS011;71313;43.514;1.500;2024-02-26T04:59:12;3.35;;;0.68;;
81864;SDS011;71313;43.514;1.500;2024-02-26T05:01:37;3.22;;;0.70;;
81864;SDS011;71313;43.514;1.500;2024-02-26T05:04:02;4.38;;;0.70;;
81864;SDS011;71313;43.514;1.500;2024-02-26T05:06:28;3.42;;;0.73;;
81864;SDS011;71313;43.514;1.500;2024-02-26T05:08:54;3.13;;;0.55;;
81864;SDS011;71313;43.514;1.500;2024-02-26T05:11:19;4.45;;;0.55;;
81864;SDS011;71313;43.514;1.500;2024-02-26T05:13:45;2.80;;;0.40;;
81864;SDS011;71313;43.514;1.500;2024-02-26T05:16:10;3.25;;;0.75;;
81864;SDS011;71313;43.514;1.500;2024-02-26T05:18:36;4.28;;;0.60;;
81864;SDS011;71313;43.514;1.500;2024-02-26T05:21:02;4.47;;;0.63;;
81864;SDS011;71313;43.514;1.500;2024-02-26T05:23:28;3.45;;;1.08;;
81864;SDS011;71313;43.514;1.500;2024-02-26T05:25:54;2.42;;;0.68;;
81864;SDS011;71313;43.514;1.500;2024-02-26T05:28:19;1.83;;;0.30;;
81864;SDS011;71313;43.514;1.500;2024-02-26T05:30:45;3.90;;;0.73;;
81864;SDS011;71313;43.514;1.500;2024-02-26T05:33:11;3.58;;;0.88;;
81864;SDS011;71313;43.514;1.500;2024-02-26T05:35:37;2.78;;;0.45;;
81864;SDS011;71313;43.514;1.500;2024-02-26T05:38:02;2.78;;;0.60;;
81864;SDS011;71313;43.514;1.500;2024-02-26T05:40:28;2.00;;;0.60;;
81864;SDS011;71313;43.514;1.500;2024-02-26T05:42:55;4.88;;;0.70;;
81864;SDS011;71313;43.514;1.500;2024-02-26T05:45:20;1.88;;;0.43;;
81864;SDS011;71313;43.514;1.500;2024-02-26T05:47:46;3.13;;;0.73;;
81864;SDS011;71313;43.514;1.500;2024-02-26T05:50:12;2.97;;;0.50;;
81864;SDS011;71313;43.514;1.500;2024-02-26T05:52:38;4.40;;;0.80;;
81864;SDS011;71313;43.514;1.500;2024-02-26T05:55:04;4.15;;;0.90;;
81864;SDS011;71313;43.514;1.500;2024-02-26T05:57:31;3.33;;;0.80;;
81864;SDS011;71313;43.514;1.500;2024-02-26T05:59:56;2.75;;;0.50;;
81864;SDS011;71313;43.514;1.500;2024-02-26T06:02:22;2.03;;;0.75;;
81864;SDS011;71313;43.514;1.500;2024-02-26T06:04:47;1.88;;;0.45;;
81864;SDS011;71313;43.514;1.500;2024-02-26T06:07:13;1.92;;;0.45;;
81864;SDS011;71313;43.514;1.500;2024-02-26T06:09:38;2.17;;;0.43;;
81864;SDS011;71313;43.514;1.500;2024-02-26T06:12:04;2.08;;;0.68;;
81864;SDS011;71313;43.514;1.500;2024-02-26T06:14:30;4.30;;;1.13;;
81864;SDS011;71313;43.514;1.500;2024-02-26T06:16:55;2.63;;;1.20;;
81864;SDS011;71313;43.514;1.500;2024-02-26T06:19:21;1.85;;;0.55;;
81864;SDS011;71313;43.514;1.500;2024-02-26T06:21:46;3.78;;;0.82;;
81864;SDS011;71313;43.514;1.500;2024-02-26T06:24:12;1.52;;;0.60;;
81864;SDS011;71313;43.514;1.500;2024-02-26T06:26:37;2.35;;;0.50;;
81864;SDS011;71313;43.514;1.500;2024-02-26T06:29:02;1.65;;;0.40;;
81864;SDS011;71313;43.514;1.500;2024-02-26T06:31:28;3.67;;;0.50;;
81864;SDS011;71313;43.514;1.500;2024-02-26T06:33:54;1.25;;;0.30;;
81864;SDS011;71313;43.514;1.500;2024-02-26T06:36:20;1.20;;;0.43;;
81864;SDS011;71313;43.514;1.500;2024-02-26T06:38:46;1.67;;;0.47;;
81864;SDS011;71313;43.514;1.500;2024-02-26T06:41:11;1.70;;;0.40;;
81864;SDS011;71313;43.514;1.500;2024-02-26T06:43:36;0.47;;;0.30;;
81864;SDS011;71313;43.514;1.500;2024-02-26T06:46:02;1.40;;;0.40;;
81864;SDS011;71313;43.514;1.500;2024-02-26T06:48:28;2.17;;;0.60;;
81864;SDS011;71313;43.514;1.500;2024-02-26T06:50:53;0.98;;;0.40;;
81864;SDS011;71313;43.514;1.500;2024-02-26T06:53:19;1.05;;;0.30;;
81864;SDS011;71313;43.514;1.500;2024-02-26T06:55:44;1.40;;;0.43;;
81864;SDS011;71313;43.514;1.500;2024-02-26T06:58:09;1.77;;;0.43;;
81864;SDS011;71313;43.514;1.500;2024-02-26T07:00:35;1.95;;;0.50;;
81864;SDS011;71313;43.514;1.500;2024-02-26T07:03:00;1.02;;;0.30;;
81864;SDS011;71313;43.514;1.500;2024-02-26T07:05:26;0.88;;;0.20;;
81864;SDS011;71313;43.514;1.500;2024-02-26T07:07:52;1.38;;;0.30;;
81864;SDS011;71313;43.514;1.500;2024-02-26T07:10:18;0.90;;;0.40;;
81864;SDS011;71313;43.514;1.500;2024-02-26T07:12:44;1.20;;;0.43;;
81864;SDS011;71313;43.514;1.500;2024-02-26T07:15:09;2.90;;;0.32;;
81864;SDS011;71313;43.514;1.500;2024-02-26T07:17:35;1.27;;;0.32;;
81864;SDS011;71313;43.514;1.500;2024-02-26T07:20:01;0.70;;;0.20;;
81864;SDS011;71313;43.514;1.500;2024-02-26T07:22:29;0.93;;;0.30;;
81864;SDS011;71313;43.514;1.500;2024-02-26T07:24:55;1.42;;;0.50;;
81864;SDS011;71313;43.514;1.500;2024-02-26T07:27:20;1.75;;;0.40;;
81864;SDS011;71313;43.514;1.500;2024-02-26T07:29:46;1.63;;;0.30;;
81864;SDS011;71313;43.514;1.500;2024-02-26T07:32:11;1.90;;;0.30;;
81864;SDS011;71313;43.514;1.500;2024-02-26T07:34:37;0.63;;;0.40;;
81864;SDS011;71313;43.514;1.500;2024-02-26T07:37:06;2.70;;;0.50;;
81864;SDS011;71313;43.514;1.500;2024-02-26T07:39:32;1.98;;;0.40;;
81864;SDS011;71313;43.514;1.500;2024-02-26T07:41:57;1.63;;;0.30;;
81864;SDS011;71313;43.514;1.500;2024-02-26T07:44:22;4.88;;;0.50;;
81864;SDS011;71313;43.514;1.500;2024-02-26T07:46:48;1.40;;;0.35;;
81864;SDS011;71313;43.514;1.500;2024-02-26T07:49:13;1.30;;;0.30;;
81864;SDS011;71313;43.514;1.500;2024-02-26T07:51:39;2.67;;;0.45;;
81864;SDS011;71313;43.514;1.500;2024-02-26T07:54:04;1.85;;;0.40;;
81864;SDS011;71313;43.514;1.500;2024-02-26T07:56:30;1.55;;;0.40;;
81864;SDS011;71313;43.514;1.500;2024-02-26T07:58:55;2.72;;;0.40;;
81864;SDS011;71313;43.514;1.500;2024-02-26T08:01:20;2.75;;;0.30;;
81864;SDS011;71313;43.514;1.500;2024-02-26T08:03:46;0.98;;;0.20;;
81864;SDS011;71313;43.514;1.500;2024-02-26T08:06:11;3.40;;;0.60;;
81864;SDS011;71313;43.514;1.500;2024-02-26T08:08:36;1.42;;;0.32;;
81864;SDS011;71313;43.514;1.500;2024-02-26T08:11:02;1.75;;;0.32;;
81864;SDS011;71313;43.514;1.500;2024-02-26T08:13:27;1.83;;;0.55;;
81864;SDS011;71313;43.514;1.500;2024-02-26T08:15:53;1.75;;;0.68;;
81864;SDS011;71313;43.514;1.500;2024-02-26T08:18:18;3.97;;;0.50;;
81864;SDS011;71313;43.514;1.500;2024-02-26T08:20:44;2.17;;;0.90;;
81864;SDS011;71313;43.514;1.500;2024-02-26T08:23:10;3.00;;;0.70;;
81864;SDS011;71313;43.514;1.500;2024-02-26T08:25:35;2.33;;;0.57;;
81864;SDS011;71313;43.514;1.500;2024-02-26T08:28:00;3.03;;;0.93;;
81864;SDS011;71313;43.514;1.500;2024-02-26T08:30:26;2.63;;;0.98;;
81864;SDS011;71313;43.514;1.500;2024-02-26T08:32:51;2.33;;;0.50;;
81864;SDS011;71313;43.514;1.500;2024-02-26T08:35:17;1.73;;;0.30;;
81864;SDS011;71313;43.514;1.500;2024-02-26T08:37:46;4.03;;;0.70;;
81864;SDS011;71313;43.514;1.500;2024-02-26T08:40:13;3.00;;;0.50;;
81864;SDS011;71313;43.514;1.500;2024-02-26T08:42:39;3.72;;;0.60;;
81864;SDS011;71313;43.514;1.500;2024-02-26T08:45:04;1.88;;;0.52;;
81864;SDS011;71313;43.514;1.500;2024-02-26T08:47:30;4.28;;;0.57;;
81864;SDS011;71313;43.514;1.500;2024-02-26T08:49:56;4.25;;;1.17;;
81864;SDS011;71313;43.514;1.500;2024-02-26T08:52:21;1.38;;;0.40;;
81864;SDS011;71313;43.514;1.500;2024-02-26T08:54:46;3.80;;;0.80;;
81864;SDS011;71313;43.514;1.500;2024-02-26T08:57:12;3.58;;;0.95;;
81864;SDS011;71313;43.514;1.500;2024-02-26T08:59:37;5.18;;;0.80;;
81864;SDS011;71313;43.514;1.500;2024-02-26T09:02:03;1.73;;;0.55;;
81864;SDS011;71313;43.514;1.500;2024-02-26T09:04:28;1.95;;;0.93;;
81864;SDS011;71313;43.514;1.500;2024-02-26T09:06:54;2.72;;;0.63;;
81864;SDS011;71313;43.514;1.500;2024-02-26T09:09:19;4.75;;;0.80;;
81864;SDS011;71313;43.514;1.500;2024-02-26T09:11:47;1.70;;;0.38;;
81864;SDS011;71313;43.514;1.500;2024-02-26T09:14:12;2.88;;;0.77;;
81864;SDS011;71313;43.514;1.500;2024-02-26T09:16:38;3.83;;;0.70;;
81864;SDS011;71313;43.514;1.500;2024-02-26T09:19:03;4.50;;;0.70;;
81864;SDS011;71313;43.514;1.500;2024-02-26T09:21:28;4.20;;;0.93;;
81864;SDS011;71313;43.514;1.500;2024-02-26T09:23:55;3.90;;;0.50;;
81864;SDS011;71313;43.514;1.500;2024-02-26T09:26:21;2.88;;;0.82;;
81864;SDS011;71313;43.514;1.500;2024-02-26T09:28:46;1.73;;;0.40;;
81864;SDS011;71313;43.514;1.500;2024-02-26T09:31:11;2.35;;;0.60;;
81864;SDS011;71313;43.514;1.500;2024-02-26T09:33:37;3.60;;;0.60;;
81864;SDS011;71313;43.514;1.500;2024-02-26T09:36:03;1.15;;;0.40;;
81864;SDS011;71313;43.514;1.500;2024-02-26T09:38:29;2.17;;;0.50;;
81864;SDS011;71313;43.514;1.500;2024-02-26T09:41:02;1.48;;;0.63;;
81864;SDS011;71313;43.514;1.500;2024-02-26T09:43:27;3.67;;;0.70;;
81864;SDS011;71313;43.514;1.500;2024-02-26T09:46:00;2.65;;;0.52;;
81864;SDS011;71313;43.514;1.500;2024-02-26T09:48:26;2.78;;;0.63;;
81864;SDS011;71313;43.514;1.500;2024-02-26T09:50:53;2.70;;;0.50;;
81864;SDS011;71313;43.514;1.500;2024-02-26T09:53:18;2.15;;;0.70;;
81864;SDS011;71313;43.514;1.500;2024-02-26T09:55:46;3.38;;;0.70;;
81864;SDS011;71313;43.514;1.500;2024-02-26T09:58:12;3.45;;;0.80;;
81864;SDS011;71313;43.514;1.500;2024-02-26T10:00:43;1.95;;;0.52;;
81864;SDS011;71313;43.514;1.500;2024-02-26T10:03:17;2.53;;;0.52;;
81864;SDS011;71313;43.514;1.500;2024-02-26T10:05:46;3.45;;;0.70;;
81864;SDS011;71313;43.514;1.500;2024-02-26T10:08:13;1.35;;;0.40;;
81864;SDS011;71313;43.514;1.500;2024-02-26T10:10:39;1.25;;;0.50;;
81864;SDS011;71313;43.514;1.500;2024-02-26T10:13:05;2.25;;;0.47;;
81864;SDS011;71313;43.514;1.500;2024-02-26T10:15:35;2.60;;;0.60;;
81864;SDS011;71313;43.514;1.500;2024-02-26T10:18:10;1.23;;;0.40;;
81864;SDS011;71313;43.514;1.500;2024-02-26T10:20:35;2.40;;;0.75;;
81864;SDS011;71313;43.514;1.500;2024-02-26T10:23:04;1.50;;;0.60;;
81864;SDS011;71313;43.514;1.500;2024-02-26T10:25:30;1.38;;;0.50;;
81864;SDS011;71313;43.514;1.500;2024-02-26T10:27:59;2.50;;;0.70;;
81864;SDS011;71313;43.514;1.500;2024-02-26T10:30:27;1.73;;;0.47;;
81864;SDS011;71313;43.514;1.500;2024-02-26T10:32:54;1.65;;;0.50;;
81864;SDS011;71313;43.514;1.500;2024-02-26T10:35:19;2.33;;;0.50;;
81864;SDS011;71313;43.514;1.500;2024-02-26T10:37:47;1.08;;;0.30;;
81864;SDS011;71313;43.514;1.500;2024-02-26T10:40:14;0.98;;;0.40;;
81864;SDS011;71313;43.514;1.500;2024-02-26T10:42:40;2.17;;;0.68;;
81864;SDS011;71313;43.514;1.500;2024-02-26T10:45:07;0.77;;;0.40;;
81864;SDS011;71313;43.514;1.500;2024-02-26T10:47:34;1.48;;;0.50;;
81864;SDS011;71313;43.514;1.500;2024-02-26T10:50:04;1.70;;;0.40;;
81864;SDS011;71313;43.514;1.500;2024-02-26T10:52:34;4.03;;;0.50;;
81864;SDS011;71313;43.514;1.500;2024-02-26T10:55:04;1.15;;;0.30;;
81864;SDS011;71313;43.514;1.500;2024-02-26T10:57:33;1.42;;;0.40;;
81864;SDS011;71313;43.514;1.500;2024-02-26T11:00:02;3.28;;;0.50;;
81864;SDS011;71313;43.514;1.500;2024-02-26T11:02:30;2.00;;;0.50;;
81864;SDS011;71313;43.514;1.500;2024-02-26T11:05:03;2.15;;;0.40;;
81864;SDS011;71313;43.514;1.500;2024-02-26T11:07:29;2.15;;;0.55;;
81864;SDS011;71313;43.514;1.500;2024-02-26T11:09:57;4.00;;;0.60;;
81864;SDS011;71313;43.514;1.500;2024-02-26T11:12:24;2.78;;;0.60;;
81864;SDS011;71313;43.514;1.500;2024-02-26T11:14:53;1.05;;;0.30;;
81864;SDS011;71313;43.514;1.500;2024-02-26T11:17:20;1.08;;;0.30;;
81864;SDS011;71313;43.514;1.500;2024-02-26T11:19:47;2.63;;;0.40;;
81864;SDS011;71313;43.514;1.500;2024-02-26T11:22:14;3.90;;;0.45;;
81864;SDS011;71313;43.514;1.500;2024-02-26T11:24:40;2.08;;;0.50;;
81864;SDS011;71313;43.514;1.500;2024-02-26T11:27:07;1.25;;;0.40;;
81864;SDS011;71313;43.514;1.500;2024-02-26T11:29:40;0.98;;;0.40;;
81864;SDS011;71313;43.514;1.500;2024-02-26T11:32:10;3.13;;;0.60;;
81864;SDS011;71313;43.514;1.500;2024-02-26T11:34:36;2.03;;;0.68;;
81864;SDS011;71313;43.514;1.500;2024-02-26T11:37:11;3.90;;;0.80;;
81864;SDS011;71313;43.514;1.500;2024-02-26T11:39:39;1.80;;;0.50;;
81864;SDS011;71313;43.514;1.500;2024-02-26T11:42:08;1.20;;;0.47;;
81864;SDS011;71313;43.514;1.500;2024-02-26T11:44:35;1.25;;;0.30;;
81864;SDS011;71313;43.514;1.500;2024-02-26T11:49:36;0.85;;;0.32;;
81864;SDS011;71313;43.514;1.500;2024-02-26T11:52:06;3.03;;;0.70;;
81864;SDS011;71313;43.514;1.500;2024-02-26T11:57:24;2.22;;;0.63;;
81864;SDS011;71313;43.514;1.500;2024-02-26T11:59:56;1.33;;;0.50;;
81864;SDS011;71313;43.514;1.500;2024-02-26T12:02:41;1.85;;;0.55;;
81864;SDS011;71313;43.514;1.500;2024-02-26T12:05:18;1.08;;;0.40;;
81864;SDS011;71313;43.514;1.500;2024-02-26T12:07:48;1.23;;;0.28;;
81864;SDS011;71313;43.514;1.500;2024-02-26T12:12:59;0.75;;;0.30;;
81864;SDS011;71313;43.514;1.500;2024-02-26T12:15:32;1.38;;;0.60;;
81864;SDS011;71313;43.514;1.500;2024-02-26T12:18:01;0.98;;;0.40;;
81864;SDS011;71313;43.514;1.500;2024-02-26T12:20:27;0.63;;;0.38;;
81864;SDS011;71313;43.514;1.500;2024-02-26T12:22:53;1.20;;;0.55;;
81864;SDS011;71313;43.514;1.500;2024-02-26T12:25:24;1.52;;;0.70;;
81864;SDS011;71313;43.514;1.500;2024-02-26T12:27:53;2.30;;;1.40;;
81864;SDS011;71313;43.514;1.500;2024-02-26T12:30:19;1.65;;;0.68;;
81864;SDS011;71313;43.514;1.500;2024-02-26T12:32:45;1.15;;;0.40;;
81864;SDS011;71313;43.514;1.500;2024-02-26T12:35:13;1.90;;;0.47;;
81864;SDS011;71313;43.514;1.500;2024-02-26T12:37:39;1.27;;;0.40;;
81864;SDS011;71313;43.514;1.500;2024-02-26T12:40:05;1.27;;;0.35;;
81864;SDS011;71313;43.514;1.500;2024-02-26T12:42:33;0.95;;;0.30;;
81864;SDS011;71313;43.514;1.500;2024-02-26T12:45:04;1.90;;;0.50;;
81864;SDS011;71313;43.514;1.500;2024-02-26T12:47:35;1.35;;;0.73;;
81864;SDS011;71313;43.514;1.500;2024-02-26T12:50:04;2.03;;;0.70;;
81864;SDS011;71313;43.514;1.500;2024-02-26T12:52:31;0.52;;;0.35;;
81864;SDS011;71313;43.514;1.500;2024-02-26T12:54:58;1.15;;;0.40;;
81864;SDS011;71313;43.514;1.500;2024-02-26T12:57:23;1.48;;;0.60;;
81864;SDS011;71313;43.514;1.500;2024-02-26T12:59:49;1.02;;;0.50;;
81864;SDS011;71313;43.514;1.500;2024-02-26T13:02:15;1.40;;;0.40;;
81864;SDS011;71313;43.514;1.500;2024-02-26T13:04:40;0.70;;;0.38;;
81864;SDS011;71313;43.514;1.500;2024-02-26T13:07:06;1.90;;;0.63;;
81864;SDS011;71313;43.514;1.500;2024-02-26T13:09:32;0.63;;;0.40;;
81864;SDS011;71313;43.514;1.500;2024-02-26T13:12:03;2.17;;;0.85;;
81864;SDS011;71313;43.514;1.500;2024-02-26T13:14:30;1.30;;;0.77;;
81864;SDS011;71313;43.514;1.500;2024-02-26T13:16:59;0.80;;;0.40;;
81864;SDS011;71313;43.514;1.500;2024-02-26T13:19:25;0.82;;;0.30;;
81864;SDS011;71313;43.514;1.500;2024-02-26T13:21:52;2.30;;;0.50;;
81864;SDS011;71313;43.514;1.500;2024-02-26T13:24:19;1.02;;;0.40;;
81864;SDS011;71313;43.514;1.500;2024-02-26T13:26:45;0.50;;;0.30;;
81864;SDS011;71313;43.514;1.500;2024-02-26T13:29:17;1.20;;;0.57;;
81864;SDS011;71313;43.514;1.500;2024-02-26T13:31:44;0.93;;;0.47;;
81864;SDS011;71313;43.514;1.500;2024-02-26T13:34:09;1.40;;;0.60;;
81864;SDS011;71313;43.514;1.500;2024-02-26T13:36:34;1.00;;;0.50;;
81864;SDS011;71313;43.514;1.500;2024-02-26T13:39:00;0.60;;;0.50;;
81864;SDS011;71313;43.514;1.500;2024-02-26T13:41:26;0.88;;;0.40;;
81864;SDS011;71313;43.514;1.500;2024-02-26T13:43:52;1.63;;;0.50;;
81864;SDS011;71313;43.514;1.500;2024-02-26T13:46:17;1.88;;;0.47;;
81864;SDS011;71313;43.514;1.500;2024-02-26T13:48:43;0.60;;;0.30;;
81864;SDS011;71313;43.514;1.500;2024-02-26T13:51:10;1.25;;;0.50;;
81864;SDS011;71313;43.514;1.500;2024-02-26T13:53:35;1.08;;;0.30;;
81864;SDS011;71313;43.514;1.500;2024-02-26T13:56:01;1.90;;;0.60;;
81864;SDS011;71313;43.514;1.500;2024-02-26T13:58:30;1.35;;;0.50;;
81864;SDS011;71313;43.514;1.500;2024-02-26T14:00:55;0.82;;;0.47;;
81864;SDS011;71313;43.514;1.500;2024-02-26T14:03:21;1.52;;;0.50;;
81864;SDS011;71313;43.514;1.500;2024-02-26T14:05:47;1.48;;;0.40;;
81864;SDS011;71313;43.514;1.500;2024-02-26T14:08:12;1.23;;;0.47;;
81864;SDS011;71313;43.514;1.500;2024-02-26T14:10:38;1.58;;;0.50;;
81864;SDS011;71313;43.514;1.500;2024-02-26T14:13:04;1.15;;;0.50;;
81864;SDS011;71313;43.514;1.500;2024-02-26T14:15:30;0.93;;;0.40;;
81864;SDS011;71313;43.514;1.500;2024-02-26T14:17:55;3.05;;;1.10;;
81864;SDS011;71313;43.514;1.500;2024-02-26T14:20:24;0.88;;;0.40;;
81864;SDS011;71313;43.514;1.500;2024-02-26T14:22:50;1.35;;;0.60;;
81864;SDS011;71313;43.514;1.500;2024-02-26T14:25:18;0.90;;;0.50;;
81864;SDS011;71313;43.514;1.500;2024-02-26T14:27:44;4.25;;;1.00;;
81864;SDS011;71313;43.514;1.500;2024-02-26T14:30:11;1.20;;;0.70;;
81864;SDS011;71313;43.514;1.500;2024-02-26T14:32:37;1.40;;;0.60;;
81864;SDS011;71313;43.514;1.500;2024-02-26T14:35:03;1.15;;;0.60;;
81864;SDS011;71313;43.514;1.500;2024-02-26T14:37:32;0.85;;;0.40;;
81864;SDS011;71313;43.514;1.500;2024-02-26T14:39:58;1.02;;;0.30;;
81864;SDS011;71313;43.514;1.500;2024-02-26T14:42:23;0.95;;;0.40;;
81864;SDS011;71313;43.514;1.500;2024-02-26T14:44:49;0.50;;;0.25;;
81864;SDS011;71313;43.514;1.500;2024-02-26T14:47:15;0.20;;;0.15;;